Time;durP1;ratioP1;P1;durP2;ratioP2;P2;SDS_P1;SDS_P2;PMS_P1;PMS_P2;Temp;Humidity;BMP_temperature;BMP_pressure;BME280_temperature;BME280_humidity;BME280_pressure;Samples;Min_cycle;Max_cycle;Signal;HPM_P1;HPM_P2
2021/01/24 00:01:48;;;;;;;3.58;3.28;;;2.00;99.90;;;;;;5106621;28;20467;-65
2021/01/24 00:04:14;;;;;;;2.47;2.03;;;2.00;99.90;;;;;;5105339;28;20098;-62
2021/01/24 00:06:39;;;;;;;3.53;2.58;;;1.90;99.90;;;;;;5111515;28;20024;-62
2021/01/24 00:09:05;;;;;;;3.70;2.70;;;1.90;99.90;;;;;;5111522;28;20023;-63
2021/01/24 00:11:31;;;;;;;3.22;2.13;;;1.90;99.90;;;;;;5112149;28;20091;-62
2021/01/24 00:13:56;;;;;;;2.75;2.25;;;1.90;99.90;;;;;;5094051;28;20030;-63
2021/01/24 00:16:22;;;;;;;3.45;2.30;;;1.90;99.90;;;;;;5101352;28;20102;-62
2021/01/24 00:18:47;;;;;;;2.90;2.30;;;1.90;99.90;;;;;;5101767;28;20428;-64
2021/01/24 00:21:13;;;;;;;2.03;1.60;;;1.90;99.90;;;;;;5102200;28;20096;-63
2021/01/24 00:23:39;;;;;;;6.50;3.50;;;2.00;99.90;;;;;;5105592;28;20028;-64
2021/01/24 00:26:04;;;;;;;1.90;1.70;;;2.00;99.90;;;;;;5112036;28;20464;-63
2021/01/24 00:28:30;;;;;;;2.85;1.80;;;2.00;99.90;;;;;;5112378;28;20486;-66
2021/01/24 00:30:56;;;;;;;2.22;1.63;;;2.00;99.90;;;;;;5100225;28;20475;-61
2021/01/24 00:33:21;;;;;;;2.72;1.95;;;1.90;99.90;;;;;;5091638;28;20519;-64
2021/01/24 00:35:47;;;;;;;4.88;1.92;;;2.00;99.90;;;;;;5101269;28;20299;-62
2021/01/24 00:38:13;;;;;;;1.95;1.70;;;1.90;99.90;;;;;;5107368;28;20473;-62
2021/01/24 00:40:39;;;;;;;2.13;1.92;;;1.90;99.90;;;;;;5109372;28;20031;-63
2021/01/24 00:43:04;;;;;;;2.05;1.80;;;1.90;99.90;;;;;;5092381;28;20024;-61
2021/01/24 00:45:30;;;;;;;2.17;1.70;;;1.90;99.90;;;;;;5094240;28;20365;-63
2021/01/24 00:47:56;;;;;;;1.98;1.80;;;1.80;99.90;;;;;;5099010;28;20378;-62
2021/01/24 00:50:21;;;;;;;2.83;1.90;;;1.80;99.90;;;;;;5107643;28;20027;-62
2021/01/24 00:52:47;;;;;;;1.70;1.60;;;1.80;99.90;;;;;;5095431;28;20040;-62
2021/01/24 00:55:12;;;;;;;1.80;1.70;;;1.80;99.90;;;;;;5107182;28;20028;-62
2021/01/24 00:57:38;;;;;;;1.80;1.70;;;1.80;99.90;;;;;;5099911;28;20024;-62
2021/01/24 01:00:05;;;;;;;2.97;1.90;;;1.80;99.90;;;;;;5093791;28;20032;-62
2021/01/24 01:02:31;;;;;;;2.35;2.03;;;1.80;99.90;;;;;;5093145;28;20170;-62
2021/01/24 01:04:56;;;;;;;1.75;1.65;;;1.70;99.90;;;;;;5100079;28;20103;-62
2021/01/24 01:07:22;;;;;;;1.75;1.65;;;1.80;99.90;;;;;;5092651;28;20038;-62
2021/01/24 01:09:49;;;;;;;1.77;1.65;;;1.80;99.90;;;;;;5103709;28;20032;-63
2021/01/24 01:12:14;;;;;;;1.70;1.60;;;1.80;99.90;;;;;;5107371;28;20119;-62
2021/01/24 01:14:40;;;;;;;2.38;1.77;;;1.80;99.90;;;;;;5111679;28;20520;-62
2021/01/24 01:17:06;;;;;;;1.60;1.50;;;1.80;99.90;;;;;;5102709;28;20024;-63
2021/01/24 01:19:31;;;;;;;1.60;1.50;;;1.80;99.90;;;;;;5111750;28;20016;-62
2021/01/24 01:21:57;;;;;;;2.30;1.80;;;1.90;99.90;;;;;;5106803;28;20114;-63
2021/01/24 01:24:23;;;;;;;3.83;1.75;;;1.90;99.90;;;;;;5093658;28;20050;-62
2021/01/24 01:26:48;;;;;;;1.73;1.50;;;1.90;99.90;;;;;;5092128;28;20020;-62
2021/01/24 01:29:14;;;;;;;1.73;1.55;;;1.90;99.90;;;;;;5090824;28;20388;-62
2021/01/24 01:31:40;;;;;;;2.25;1.58;;;1.90;99.90;;;;;;5091622;28;20484;-62
2021/01/24 01:34:05;;;;;;;2.15;1.70;;;1.90;99.90;;;;;;5090824;28;20043;-62
2021/01/24 01:36:33;;;;;;;2.13;1.58;;;1.80;99.90;;;;;;5111767;28;20081;-62
2021/01/24 01:38:59;;;;;;;1.95;1.60;;;1.90;99.90;;;;;;5103357;28;20036;-62
2021/01/24 01:41:32;;;;;;;1.67;1.58;;;1.80;99.90;;;;;;5100686;28;20103;-62
2021/01/24 01:43:58;;;;;;;1.55;1.17;;;1.80;99.90;;;;;;5109500;28;20044;-62
2021/01/24 01:46:27;;;;;;;1.95;1.55;;;1.70;99.90;;;;;;5111504;28;20027;-62
2021/01/24 01:48:53;;;;;;;1.73;1.55;;;1.70;99.90;;;;;;5110120;28;20184;-66
2021/01/24 01:51:19;;;;;;;1.63;1.50;;;1.70;99.90;;;;;;5110843;28;20024;-62
2021/01/24 01:53:45;;;;;;;2.25;2.03;;;1.70;99.90;;;;;;5101897;28;20072;-62
2021/01/24 01:56:14;;;;;;;2.58;2.05;;;1.70;99.90;;;;;;5103212;28;20034;-62
2021/01/24 01:58:43;;;;;;;2.30;1.80;;;1.60;99.90;;;;;;5111051;28;20509;-62
2021/01/24 02:01:22;;;;;;;2.55;2.00;;;1.60;99.90;;;;;;5091426;28;20036;-62
2021/01/24 02:04:06;;;;;;;3.33;2.10;;;1.60;99.90;;;;;;5092174;28;20039;-62
2021/01/24 02:06:57;;;;;;;2.40;1.65;;;1.70;99.90;;;;;;5100442;28;20380;-63
2021/01/24 02:09:44;;;;;;;2.15;1.70;;;1.70;99.90;;;;;;5086835;28;20032;-61
2021/01/24 02:12:24;;;;;;;2.13;1.63;;;1.70;99.90;;;;;;5103104;28;20027;-62
2021/01/24 02:15:07;;;;;;;0.85;0.75;;;1.80;99.90;;;;;;5109393;28;20032;-62
2021/01/24 02:17:37;;;;;;;0.60;0.60;;;1.80;99.90;;;;;;5105582;28;20384;-62
2021/01/24 02:20:18;;;;;;;1.23;0.43;;;1.90;99.90;;;;;;5092213;28;20039;-62
2021/01/24 02:22:47;;;;;;;0.30;0.30;;;2.00;99.90;;;;;;5091960;28;20060;-61
2021/01/24 02:25:20;;;;;;;0.40;0.40;;;2.10;99.90;;;;;;5091170;28;20059;-62
2021/01/24 02:27:57;;;;;;;2.50;0.73;;;2.10;99.90;;;;;;5091952;28;20431;-62
2021/01/24 02:30:25;;;;;;;0.60;0.40;;;2.10;99.90;;;;;;5101146;28;20055;-62
2021/01/24 02:32:56;;;;;;;0.45;0.30;;;2.10;99.90;;;;;;5110092;28;20510;-62
2021/01/24 02:35:25;;;;;;;0.85;0.30;;;2.10;99.90;;;;;;5110495;28;20031;-62
2021/01/24 02:37:52;;;;;;;0.10;0.10;;;2.10;99.90;;;;;;5103794;28;20468;-62
2021/01/24 02:40:19;;;;;;;0.28;0.22;;;2.10;99.90;;;;;;5102737;28;20023;-61
2021/01/24 02:42:46;;;;;;;0.10;0.10;;;2.10;99.90;;;;;;5101833;28;20066;-62
2021/01/24 02:45:12;;;;;;;0.20;0.20;;;2.10;99.90;;;;;;5105721;28;20024;-62
2021/01/24 02:47:39;;;;;;;0.10;0.00;;;2.00;99.90;;;;;;5099305;28;20076;-63
2021/01/24 02:50:05;;;;;;;0.00;0.00;;;2.00;99.90;;;;;;5082618;28;20042;-61
2021/01/24 02:52:32;;;;;;;0.28;0.10;;;2.00;99.90;;;;;;5110802;28;20047;-61
2021/01/24 02:54:58;;;;;;;0.10;0.00;;;1.90;99.90;;;;;;5110566;28;20059;-62
2021/01/24 02:57:24;;;;;;;0.30;0.25;;;1.90;99.90;;;;;;5095319;28;20035;-62
2021/01/24 02:59:50;;;;;;;0.85;0.20;;;1.90;99.90;;;;;;5107370;28;20418;-62
2021/01/24 03:02:16;;;;;;;0.32;0.10;;;1.90;99.90;;;;;;5091091;28;20050;-62
2021/01/24 03:04:41;;;;;;;0.43;0.20;;;1.90;99.90;;;;;;5094789;28;20430;-63
2021/01/24 03:07:07;;;;;;;0.22;0.10;;;1.80;99.90;;;;;;5095984;28;20524;-62
2021/01/24 03:09:33;;;;;;;0.10;0.10;;;1.90;99.90;;;;;;5111881;28;20520;-62
2021/01/24 03:12:01;;;;;;;0.20;0.20;;;1.80;99.90;;;;;;5105998;28;20067;-62
2021/01/24 03:14:29;;;;;;;0.70;0.30;;;1.70;99.90;;;;;;5109501;28;20024;-62
2021/01/24 03:16:58;;;;;;;1.85;0.60;;;1.60;99.90;;;;;;5094383;28;20024;-64
2021/01/24 03:19:26;;;;;;;0.47;0.47;;;1.60;99.90;;;;;;5103422;28;20048;-61
2021/01/24 03:21:53;;;;;;;0.50;0.50;;;1.60;99.90;;;;;;5107818;28;20023;-61
2021/01/24 03:24:22;;;;;;;0.50;0.50;;;1.60;99.90;;;;;;5114043;28;20084;-61
2021/01/24 03:26:48;;;;;;;0.75;0.60;;;1.60;99.90;;;;;;5110398;28;20026;-61
2021/01/24 03:29:14;;;;;;;0.80;0.80;;;1.70;99.90;;;;;;5093844;28;20028;-61
2021/01/24 03:31:44;;;;;;;3.42;1.10;;;1.60;99.90;;;;;;5094236;28;20050;-60
2021/01/24 03:34:23;;;;;;;1.67;1.10;;;1.60;99.90;;;;;;5101694;28;20036;-63
2021/01/24 03:36:51;;;;;;;1.05;1.00;;;1.50;99.90;;;;;;5091447;28;20042;-61
2021/01/24 03:39:17;;;;;;;1.77;1.23;;;1.40;99.90;;;;;;5106660;28;20655;-61
2021/01/24 03:41:43;;;;;;;1.70;1.58;;;1.30;99.90;;;;;;5094431;28;20031;-60
2021/01/24 03:44:09;;;;;;;1.65;1.50;;;1.30;99.90;;;;;;5098695;28;20094;-61
2021/01/24 03:46:35;;;;;;;1.52;1.40;;;1.20;99.90;;;;;;5097320;28;20115;-61
2021/01/24 03:49:01;;;;;;;2.25;1.30;;;1.20;99.90;;;;;;5092275;28;20070;-61
2021/01/24 03:51:28;;;;;;;2.80;1.63;;;1.20;99.90;;;;;;5094116;28;20028;-61
2021/01/24 03:53:55;;;;;;;2.53;1.75;;;1.10;99.90;;;;;;5096463;28;20036;-63
2021/01/24 03:56:21;;;;;;;2.10;1.70;;;1.10;99.90;;;;;;5113216;28;20395;-61
2021/01/24 03:58:46;;;;;;;1.90;1.70;;;1.10;99.90;;;;;;5113448;28;20069;-61
2021/01/24 04:01:12;;;;;;;5.88;1.83;;;1.10;99.90;;;;;;5101195;28;20020;-61
2021/01/24 04:03:38;;;;;;;3.45;1.85;;;1.00;99.90;;;;;;5093874;28;20032;-61
2021/01/24 04:06:04;;;;;;;3.33;2.42;;;1.00;99.90;;;;;;5093501;28;20370;-63
2021/01/24 04:08:29;;;;;;;2.42;1.90;;;1.00;99.90;;;;;;5093567;28;20024;-60
2021/01/24 04:10:55;;;;;;;5.75;2.08;;;1.00;99.90;;;;;;5094104;28;20134;-62
2021/01/24 04:13:21;;;;;;;3.17;2.40;;;1.00;99.60;;;;;;5101299;28;20034;-61
2021/01/24 04:15:47;;;;;;;4.10;2.03;;;1.00;99.90;;;;;;5113730;28;20442;-60
2021/01/24 04:18:13;;;;;;;2.53;2.10;;;1.00;99.30;;;;;;5111218;28;20028;-61
2021/01/24 04:20:38;;;;;;;3.38;2.20;;;1.10;97.20;;;;;;5093510;28;20111;-60
2021/01/24 04:23:04;;;;;;;3.75;2.15;;;1.00;97.90;;;;;;5092575;28;20028;-60
2021/01/24 04:25:30;;;;;;;4.10;2.28;;;1.00;98.60;;;;;;5093502;28;20020;-63
2021/01/24 04:27:56;;;;;;;3.33;2.15;;;1.10;99.70;;;;;;5095598;28;20346;-63
2021/01/24 04:30:21;;;;;;;2.33;2.00;;;1.00;99.70;;;;;;5092852;28;20027;-60
2021/01/24 04:32:47;;;;;;;3.63;2.10;;;1.00;99.90;;;;;;5093329;28;20187;-61
2021/01/24 04:35:13;;;;;;;2.00;1.80;;;0.90;99.90;;;;;;5112324;28;20027;-60
2021/01/24 04:37:39;;;;;;;3.33;2.22;;;0.90;99.90;;;;;;5111022;28;20024;-60
2021/01/24 04:40:05;;;;;;;3.38;2.25;;;0.90;99.20;;;;;;5103702;28;20080;-61
2021/01/24 04:42:31;;;;;;;3.65;2.30;;;0.80;98.90;;;;;;5112636;28;20032;-61
2021/01/24 04:44:56;;;;;;;4.38;2.45;;;0.70;99.40;;;;;;5110535;28;20039;-64
2021/01/24 04:47:24;;;;;;;3.53;2.15;;;0.60;99.50;;;;;;5097869;28;20475;-61
2021/01/24 04:49:50;;;;;;;4.13;2.55;;;0.60;99.00;;;;;;5094469;28;20377;-61
2021/01/24 04:52:16;;;;;;;3.33;2.13;;;0.60;98.90;;;;;;5103339;28;20031;-60
2021/01/24 04:54:45;;;;;;;2.63;2.08;;;0.50;98.90;;;;;;5105911;28;20480;-61
2021/01/24 04:57:12;;;;;;;1.90;1.70;;;0.60;93.80;;;;;;5093369;28;20024;-60
2021/01/24 04:59:38;;;;;;;4.25;2.65;;;0.70;94.60;;;;;;5112489;28;20360;-60
2021/01/24 05:02:06;;;;;;;2.58;1.70;;;0.60;94.00;;;;;;5102276;28;20535;-60
2021/01/24 05:04:32;;;;;;;4.03;2.03;;;0.60;92.10;;;;;;5099447;28;20111;-61
2021/01/24 05:06:58;;;;;;;3.28;1.73;;;0.70;89.40;;;;;;5101174;28;20107;-66
2021/01/24 05:09:23;;;;;;;2.35;1.45;;;0.70;89.20;;;;;;5092620;28;20473;-61
2021/01/24 05:11:53;;;;;;;3.08;1.35;;;0.60;85.50;;;;;;5097133;28;20453;-60
2021/01/24 05:14:22;;;;;;;2.28;1.30;;;0.60;84.60;;;;;;5111475;28;20023;-60
2021/01/24 05:16:48;;;;;;;4.13;1.80;;;0.60;85.20;;;;;;5088338;28;20055;-60
2021/01/24 05:19:14;;;;;;;3.28;1.60;;;0.70;84.80;;;;;;5111695;28;20353;-60
2021/01/24 05:21:40;;;;;;;2.75;1.52;;;0.60;84.90;;;;;;5110354;28;20107;-60
2021/01/24 05:24:12;;;;;;;2.25;1.70;;;0.60;85.60;;;;;;5091436;28;20107;-63
2021/01/24 05:26:38;;;;;;;4.00;1.98;;;0.60;86.60;;;;;;5091362;28;20050;-61
2021/01/24 05:29:04;;;;;;;4.00;1.60;;;0.60;87.90;;;;;;5103145;28;20373;-60
2021/01/24 05:31:30;;;;;;;3.22;2.13;;;0.50;89.70;;;;;;5096495;28;20051;-61
2021/01/24 05:33:57;;;;;;;3.13;1.77;;;0.50;90.90;;;;;;5092009;28;20122;-60
2021/01/24 05:36:23;;;;;;;3.47;2.35;;;0.50;91.40;;;;;;5109299;28;20063;-60
2021/01/24 05:38:51;;;;;;;2.88;1.90;;;0.50;92.50;;;;;;5109201;28;20024;-60
2021/01/24 05:41:17;;;;;;;3.13;1.80;;;0.40;93.40;;;;;;5093417;28;20074;-59
2021/01/24 05:43:44;;;;;;;5.75;2.72;;;0.50;93.90;;;;;;5090911;28;20032;-60
2021/01/24 05:46:11;;;;;;;2.42;1.80;;;0.50;93.70;;;;;;5091443;28;20110;-60
2021/01/24 05:48:49;;;;;;;5.93;2.70;;;0.40;93.60;;;;;;5100192;28;20028;-60
2021/01/24 05:51:16;;;;;;;6.03;2.75;;;0.40;95.00;;;;;;5103487;28;20027;-60
2021/01/24 05:53:47;;;;;;;3.90;2.47;;;0.30;95.50;;;;;;5102696;28;20036;-60
2021/01/24 05:56:19;;;;;;;3.75;2.33;;;0.20;94.90;;;;;;5085902;28;20388;-60
2021/01/24 05:58:44;;;;;;;3.40;2.08;;;0.20;94.50;;;;;;5111450;28;20027;-60
2021/01/24 06:01:10;;;;;;;3.72;2.42;;;0.10;93.70;;;;;;5092340;28;20036;-60
2021/01/24 06:03:37;;;;;;;5.25;2.65;;;0.10;93.40;;;;;;5096362;28;20108;-60
2021/01/24 06:06:05;;;;;;;5.40;2.85;;;0.00;93.40;;;;;;5111623;28;20031;-64
2021/01/24 06:08:31;;;;;;;5.18;3.20;;;0.00;93.00;;;;;;5092420;28;20110;-61
2021/01/24 06:11:00;;;;;;;6.72;3.10;;;0.00;92.90;;;;;;5110591;28;20032;-60
2021/01/24 06:13:28;;;;;;;6.35;2.65;;;0.00;93.50;;;;;;5099139;28;20131;-60
2021/01/24 06:16:08;;;;;;;6.78;2.92;;;0.10;93.00;;;;;;5091785;28;20077;-60
2021/01/24 06:18:55;;;;;;;5.88;2.42;;;0.10;93.20;;;;;;5091472;28;20521;-60
2021/01/24 06:21:52;;;;;;;4.10;2.92;;;0.10;93.10;;;;;;5090480;28;20031;-62
2021/01/24 06:24:33;;;;;;;5.25;2.63;;;0.10;93.70;;;;;;5084271;28;20097;-60
2021/01/24 06:27:01;;;;;;;5.32;3.00;;;0.10;93.80;;;;;;5107115;28;20031;-60
2021/01/24 06:29:28;;;;;;;8.25;2.90;;;0.10;94.30;;;;;;5108015;28;20142;-61
2021/01/24 06:31:55;;;;;;;4.38;2.58;;;0.10;94.50;;;;;;5105697;28;20388;-60
2021/01/24 06:34:34;;;;;;;8.30;2.90;;;0.10;94.50;;;;;;5100713;28;20594;-60
2021/01/24 06:37:03;;;;;;;6.35;2.75;;;0.10;95.00;;;;;;5100744;28;20024;-61
2021/01/24 06:39:31;;;;;;;9.07;3.42;;;0.10;95.50;;;;;;5095082;28;20117;-60
2021/01/24 06:41:57;;;;;;;4.25;2.88;;;0.00;96.00;;;;;;5099868;28;20019;-61
2021/01/24 06:44:41;;;;;;;3.50;2.65;;;0.10;95.80;;;;;;5098646;28;20035;-60
2021/01/24 06:47:28;;;;;;;4.68;2.63;;;0.10;94.90;;;;;;5095064;28;20027;-60
2021/01/24 06:49:54;;;;;;;5.28;2.58;;;0.10;94.80;;;;;;5098542;28;20687;-61
2021/01/24 06:52:21;;;;;;;5.50;3.22;;;0.00;95.30;;;;;;5114166;28;20084;-60
2021/01/24 06:54:48;;;;;;;3.65;2.42;;;0.00;95.10;;;;;;5105581;28;20110;-60
2021/01/24 06:57:14;;;;;;;4.07;2.50;;;-0.10;93.60;;;;;;5094760;28;20410;-60
2021/01/24 06:59:40;;;;;;;3.67;2.85;;;-0.10;93.70;;;;;;5102230;28;20119;-60
2021/01/24 07:02:38;;;;;;;4.00;2.40;;;-0.10;94.90;;;;;;5095350;28;20115;-63
2021/01/24 07:05:08;;;;;;;3.40;2.50;;;-0.20;93.70;;;;;;5051494;28;20048;-63
2021/01/24 07:07:36;;;;;;;5.60;2.67;;;-0.20;94.00;;;;;;5100638;28;20028;-60
2021/01/24 07:10:03;;;;;;;5.97;2.63;;;-0.20;92.20;;;;;;5094674;28;20032;-63
2021/01/24 07:12:42;;;;;;;8.07;2.45;;;-0.20;92.10;;;;;;5102853;28;20075;-60
2021/01/24 07:15:20;;;;;;;4.25;2.28;;;-0.20;91.20;;;;;;5110933;28;20032;-60
2021/01/24 07:17:59;;;;;;;5.35;3.05;;;-0.10;90.90;;;;;;5113778;28;20115;-60
2021/01/24 07:20:25;;;;;;;3.33;2.50;;;0.00;90.90;;;;;;5098261;28;20207;-60
2021/01/24 07:22:54;;;;;;;3.42;2.55;;;0.00;91.90;;;;;;5114585;28;20532;-60
2021/01/24 07:25:20;;;;;;;8.05;3.35;;;0.00;92.90;;;;;;5103584;28;20038;-60
2021/01/24 07:27:51;;;;;;;6.10;3.05;;;0.00;93.80;;;;;;5114486;28;20028;-60
2021/01/24 07:30:16;;;;;;;4.82;3.25;;;0.00;94.30;;;;;;5113447;28;20051;-60
2021/01/24 07:32:42;;;;;;;5.07;2.67;;;0.00;95.00;;;;;;5092803;28;20099;-60
2021/01/24 07:35:11;;;;;;;4.50;2.85;;;-0.10;95.20;;;;;;5093270;28;20036;-61
2021/01/24 07:37:37;;;;;;;3.90;2.50;;;-0.10;95.00;;;;;;5103469;28;20059;-60
2021/01/24 07:40:03;;;;;;;3.25;2.42;;;-0.10;95.20;;;;;;5106415;28;20522;-64
2021/01/24 07:42:31;;;;;;;4.15;2.78;;;-0.10;95.00;;;;;;5093887;28;20024;-60
2021/01/24 07:44:57;;;;;;;4.95;2.38;;;-0.10;94.40;;;;;;5112035;28;20439;-60
2021/01/24 07:47:23;;;;;;;4.30;2.53;;;-0.10;92.50;;;;;;5112976;28;20031;-60
2021/01/24 07:49:48;;;;;;;4.40;3.05;;;0.00;92.00;;;;;;5104337;28;20099;-60
2021/01/24 07:52:16;;;;;;;4.72;2.30;;;-0.10;92.40;;;;;;5110122;28;20429;-60
2021/01/24 07:54:42;;;;;;;3.92;2.63;;;0.00;92.00;;;;;;5094079;28;20082;-60
2021/01/24 07:57:08;;;;;;;6.55;2.72;;;0.00;91.20;;;;;;5108979;28;20349;-60
2021/01/24 07:59:35;;;;;;;3.45;2.08;;;0.10;90.60;;;;;;5094680;28;20036;-60
2021/01/24 08:02:02;;;;;;;6.57;2.30;;;0.20;90.30;;;;;;5099305;28;20112;-60
2021/01/24 08:04:28;;;;;;;5.32;2.10;;;0.20;89.00;;;;;;5112493;28;20054;-60
2021/01/24 08:06:54;;;;;;;3.20;1.95;;;0.30;88.70;;;;;;5113495;28;20468;-61
2021/01/24 08:09:20;;;;;;;3.30;1.90;;;0.30;88.80;;;;;;5096216;28;20385;-61
2021/01/24 08:11:47;;;;;;;7.18;2.25;;;0.40;88.70;;;;;;5102450;28;20015;-60
2021/01/24 08:14:13;;;;;;;4.10;1.92;;;0.50;86.50;;;;;;5107615;28;20542;-61
2021/01/24 08:16:45;;;;;;;5.43;2.13;;;0.50;87.00;;;;;;5093644;28;20020;-62
2021/01/24 08:19:14;;;;;;;3.70;1.90;;;0.50;85.70;;;;;;5092468;28;20048;-62
2021/01/24 08:21:41;;;;;;;4.43;2.03;;;0.50;85.30;;;;;;5095112;28;20024;-61
2021/01/24 08:24:08;;;;;;;3.35;1.88;;;0.50;85.50;;;;;;5093023;28;20066;-66
2021/01/24 08:26:35;;;;;;;4.25;1.67;;;0.50;85.60;;;;;;5096621;28;20024;-61
2021/01/24 08:29:01;;;;;;;3.50;1.90;;;0.50;84.80;;;;;;5113138;28;20028;-61
2021/01/24 08:31:28;;;;;;;3.60;1.77;;;0.60;84.50;;;;;;5110939;28;20059;-63
2021/01/24 08:33:55;;;;;;;5.53;1.95;;;0.70;83.80;;;;;;5092510;28;20071;-63
2021/01/24 08:36:26;;;;;;;3.25;1.88;;;0.70;83.90;;;;;;5093047;28;20053;-61
2021/01/24 08:38:59;;;;;;;3.05;2.00;;;0.90;90.60;;;;;;5094957;28;20032;-63
2021/01/24 08:41:35;;;;;;;1.88;1.50;;;1.20;90.50;;;;;;5090465;28;20039;-62
2021/01/24 08:44:15;;;;;;;3.63;1.88;;;1.50;82.10;;;;;;5095380;28;20059;-61
2021/01/24 08:46:48;;;;;;;;;;;1.60;81.50;;;;;;5109901;28;20056;-63
2021/01/24 08:49:25;;;;;;;3.90;1.65;;;1.70;79.90;;;;;;5112058;28;20002;-61
2021/01/24 08:51:56;;;;;;;3.38;1.90;;;1.70;79.90;;;;;;5103995;28;20021;-62
2021/01/24 08:54:33;;;;;;;3.47;1.80;;;1.80;80.40;;;;;;5092098;28;20027;-61
2021/01/24 08:57:12;;;;;;;7.03;2.17;;;1.90;79.50;;;;;;5092818;28;20024;-62
2021/01/24 08:59:38;;;;;;;5.03;1.95;;;2.00;79.10;;;;;;5085316;28;20119;-61
2021/01/24 09:02:05;;;;;;;3.83;1.92;;;2.00;79.50;;;;;;5092854;28;20036;-61
2021/01/24 09:04:45;;;;;;;3.72;1.80;;;2.00;79.30;;;;;;5102028;28;20085;-62
2021/01/24 09:07:12;;;;;;;2.72;2.20;;;1.90;79.80;;;;;;5111714;28;20070;-62
2021/01/24 09:09:43;;;;;;;6.40;1.85;;;1.90;80.40;;;;;;5110853;28;20038;-61
2021/01/24 09:12:15;;;;;;;2.60;1.80;;;1.80;80.60;;;;;;5091739;28;20059;-64
2021/01/24 09:14:41;;;;;;;3.28;2.05;;;1.70;81.80;;;;;;5092457;28;20024;-62
2021/01/24 09:17:15;;;;;;;3.42;1.73;;;1.70;81.40;;;;;;5104288;28;20051;-66
2021/01/24 09:19:43;;;;;;;4.28;1.80;;;1.70;80.80;;;;;;5105361;28;20025;-65
2021/01/24 09:22:11;;;;;;;5.68;2.45;;;1.70;81.90;;;;;;5086691;28;20046;-66
2021/01/24 09:24:38;;;;;;;5.65;2.20;;;1.70;82.70;;;;;;5112358;28;20032;-63
2021/01/24 09:27:05;;;;;;;5.28;2.22;;;1.80;83.00;;;;;;5111805;28;20023;-64
2021/01/24 09:29:31;;;;;;;3.60;2.10;;;1.70;84.10;;;;;;5096782;28;20028;-62
2021/01/24 09:31:57;;;;;;;4.35;2.05;;;1.80;85.70;;;;;;5091648;28;20500;-59
2021/01/24 09:34:23;;;;;;;5.20;1.95;;;1.80;86.40;;;;;;5099165;28;20034;-59
2021/01/24 09:36:48;;;;;;;5.32;1.92;;;1.70;88.10;;;;;;5089961;28;20036;-60
2021/01/24 09:39:14;;;;;;;6.75;2.28;;;1.70;90.30;;;;;;5086814;28;20020;-60
2021/01/24 09:41:40;;;;;;;4.03;2.40;;;1.60;92.00;;;;;;5091321;28;20056;-59
2021/01/24 09:44:06;;;;;;;3.92;1.90;;;1.50;94.00;;;;;;5091462;28;20066;-63
2021/01/24 09:46:32;;;;;;;5.05;2.50;;;1.50;95.00;;;;;;5092421;28;20028;-59
2021/01/24 09:48:58;;;;;;;3.92;2.33;;;1.40;96.00;;;;;;5111573;28;20540;-59
2021/01/24 09:51:24;;;;;;;6.10;2.75;;;1.40;97.50;;;;;;5110835;28;20148;-59
2021/01/24 09:53:52;;;;;;;5.38;2.90;;;1.40;98.90;;;;;;5100626;28;20076;-59
2021/01/24 09:56:17;;;;;;;3.33;2.72;;;1.50;99.20;;;;;;5091028;28;20035;-60
2021/01/24 09:58:43;;;;;;;4.30;2.65;;;1.60;99.80;;;;;;5090305;28;20369;-63
2021/01/24 10:01:09;;;;;;;5.85;2.40;;;1.60;98.50;;;;;;5111015;28;20035;-64
2021/01/24 10:03:35;;;;;;;4.50;2.55;;;1.70;96.10;;;;;;5111412;28;20024;-63
2021/01/24 10:06:01;;;;;;;5.60;2.53;;;1.70;95.70;;;;;;5103210;28;20027;-65
2021/01/24 10:08:27;;;;;;;4.07;2.38;;;1.80;95.40;;;;;;5091363;28;20114;-61
2021/01/24 10:10:53;;;;;;;5.00;2.17;;;1.80;93.60;;;;;;5105647;28;20077;-63
2021/01/24 10:13:18;;;;;;;2.85;2.05;;;1.90;94.30;;;;;;5094984;28;20028;-63
2021/01/24 10:15:49;;;;;;;7.78;2.58;;;1.90;93.40;;;;;;5095164;28;20435;-60
2021/01/24 10:18:15;;;;;;;4.57;2.03;;;2.00;93.60;;;;;;5106906;28;20052;-63
2021/01/24 10:20:40;;;;;;;4.68;2.30;;;2.00;93.50;;;;;;5087334;28;20075;-60
2021/01/24 10:23:06;;;;;;;2.88;1.95;;;2.10;92.90;;;;;;5100901;28;20376;-60
2021/01/24 10:25:32;;;;;;;3.63;2.30;;;2.20;93.50;;;;;;5105973;28;20055;-61
2021/01/24 10:27:58;;;;;;;5.45;2.92;;;2.30;92.90;;;;;;5096476;28;20461;-62
2021/01/24 10:30:24;;;;;;;2.92;1.95;;;2.30;92.00;;;;;;5095403;28;20032;-60
2021/01/24 10:32:50;;;;;;;4.70;2.28;;;2.40;91.50;;;;;;5096047;28;20110;-60
2021/01/24 10:35:15;;;;;;;3.78;1.95;;;2.40;91.40;;;;;;5113133;28;20027;-60
2021/01/24 10:37:41;;;;;;;1.92;1.73;;;2.50;88.00;;;;;;5100974;28;20038;-60
2021/01/24 10:40:07;;;;;;;3.70;1.92;;;2.50;84.30;;;;;;5094739;28;20097;-63
2021/01/24 10:42:33;;;;;;;8.27;2.92;;;2.50;84.30;;;;;;5094306;28;20039;-60
2021/01/24 10:44:59;;;;;;;2.25;2.00;;;2.60;82.50;;;;;;5094885;28;20028;-60
2021/01/24 10:47:25;;;;;;;3.70;1.67;;;2.60;81.90;;;;;;5093359;28;20077;-59
2021/01/24 10:49:51;;;;;;;2.65;1.15;;;2.60;79.10;;;;;;5094960;28;20157;-58
2021/01/24 10:52:17;;;;;;;2.90;1.48;;;2.70;76.40;;;;;;5102040;28;20035;-59
2021/01/24 10:54:43;;;;;;;4.90;1.67;;;2.70;75.60;;;;;;5113315;28;20038;-60
2021/01/24 10:57:08;;;;;;;3.30;1.30;;;2.70;76.10;;;;;;5114569;28;20502;-62
2021/01/24 10:59:34;;;;;;;2.70;1.10;;;2.90;75.70;;;;;;5095912;28;20051;-72
2021/01/24 11:01:59;;;;;;;2.78;1.30;;;3.00;76.10;;;;;;5094722;28;20073;-71
2021/01/24 11:04:25;;;;;;;2.05;1.08;;;3.10;72.20;;;;;;5094319;28;20028;-71
2021/01/24 11:06:51;;;;;;;2.30;1.17;;;3.20;72.30;;;;;;5093284;28;20032;-72
2021/01/24 11:09:16;;;;;;;3.45;1.10;;;3.30;70.50;;;;;;5095943;28;20439;-72
2021/01/24 11:11:42;;;;;;;1.95;0.90;;;3.40;69.50;;;;;;5094474;28;20093;-71
2021/01/24 11:14:07;;;;;;;2.22;1.10;;;3.50;68.60;;;;;;5094256;28;20036;-73
2021/01/24 11:16:33;;;;;;;3.33;1.15;;;3.60;68.20;;;;;;5102343;28;20020;-71
2021/01/24 11:18:59;;;;;;;2.63;1.15;;;3.60;67.90;;;;;;5111571;28;20387;-71
2021/01/24 11:21:25;;;;;;;2.78;1.20;;;3.60;68.70;;;;;;5106162;28;20422;-60
2021/01/24 11:23:51;;;;;;;2.55;1.10;;;3.70;66.60;;;;;;5096119;28;20030;-60
2021/01/24 11:26:16;;;;;;;4.68;0.93;;;3.70;66.30;;;;;;5093612;28;20463;-60
2021/01/24 11:28:42;;;;;;;1.80;0.93;;;3.70;66.60;;;;;;5099853;28;20032;-59
2021/01/24 11:31:08;;;;;;;1.65;0.90;;;3.70;66.90;;;;;;5113112;28;20035;-62
2021/01/24 11:33:33;;;;;;;2.05;1.08;;;3.70;65.80;;;;;;5113522;28;20036;-59
2021/01/24 11:35:59;;;;;;;2.20;1.20;;;3.60;65.90;;;;;;5106239;28;20471;-61
2021/01/24 11:38:25;;;;;;;1.77;1.05;;;3.60;67.20;;;;;;5095757;28;20517;-59
2021/01/24 11:40:50;;;;;;;2.22;0.98;;;3.60;67.20;;;;;;5105313;28;20049;-59
2021/01/24 11:43:16;;;;;;;2.65;1.20;;;3.70;67.20;;;;;;5103116;28;20392;-58
2021/01/24 11:45:42;;;;;;;1.30;1.05;;;3.70;67.30;;;;;;5095424;28;20376;-59
2021/01/24 11:48:08;;;;;;;3.08;2.15;;;3.80;66.30;;;;;;5106868;28;20028;-62
2021/01/24 11:50:34;;;;;;;1.80;1.13;;;3.80;66.20;;;;;;5113416;28;20104;-59
2021/01/24 11:52:59;;;;;;;2.60;1.10;;;3.70;65.90;;;;;;5106051;28;20142;-58
2021/01/24 11:55:25;;;;;;;1.73;1.40;;;3.70;66.60;;;;;;5112149;28;20024;-59
2021/01/24 11:57:51;;;;;;;1.23;0.90;;;3.70;66.30;;;;;;5114066;28;20020;-59
2021/01/24 12:00:17;;;;;;;3.38;1.30;;;3.70;67.60;;;;;;5108510;28;20180;-59
2021/01/24 12:02:43;;;;;;;1.90;1.05;;;3.80;66.80;;;;;;5113686;28;20035;-60
2021/01/24 12:05:09;;;;;;;4.07;1.33;;;4.00;66.30;;;;;;5106705;28;20028;-63
2021/01/24 12:07:34;;;;;;;2.13;0.93;;;3.90;65.90;;;;;;5087899;28;20036;-61
2021/01/24 12:10:00;;;;;;;3.45;1.20;;;3.90;65.60;;;;;;5093308;28;20031;-63
2021/01/24 12:12:25;;;;;;;2.70;1.20;;;3.80;66.30;;;;;;5103218;28;20031;-60
2021/01/24 12:14:51;;;;;;;4.25;1.20;;;3.70;66.30;;;;;;5110958;28;20103;-59
2021/01/24 12:17:23;;;;;;;2.60;1.10;;;3.70;65.90;;;;;;5107999;28;20026;-59
2021/01/24 12:19:50;;;;;;;5.47;1.50;;;3.50;67.20;;;;;;5093258;28;20377;-62
2021/01/24 12:22:15;;;;;;;3.38;1.00;;;3.40;66.60;;;;;;5091993;28;20051;-61
2021/01/24 12:24:41;;;;;;;3.05;1.40;;;3.30;67.00;;;;;;5105285;28;20063;-60
2021/01/24 12:27:07;;;;;;;2.63;1.30;;;3.20;67.60;;;;;;5113126;28;20024;-61
2021/01/24 12:29:32;;;;;;;2.50;1.60;;;3.10;68.00;;;;;;5103584;28;20060;-59
2021/01/24 12:31:58;;;;;;;4.53;1.33;;;3.10;68.20;;;;;;5112632;28;20089;-62
2021/01/24 12:34:23;;;;;;;3.83;1.15;;;3.10;68.40;;;;;;5109791;28;20027;-60
2021/01/24 12:36:49;;;;;;;2.60;1.17;;;3.20;68.10;;;;;;5098332;28;20032;-60
2021/01/24 12:39:15;;;;;;;5.20;1.55;;;3.20;67.90;;;;;;5089902;28;20479;-60
2021/01/24 12:41:40;;;;;;;1.92;1.33;;;3.20;68.50;;;;;;5109902;28;20115;-60
2021/01/24 12:44:06;;;;;;;4.70;1.40;;;3.20;68.10;;;;;;5092704;28;20028;-60
2021/01/24 12:46:32;;;;;;;3.25;1.60;;;3.30;67.40;;;;;;5108282;28;20098;-59
2021/01/24 12:48:57;;;;;;;4.47;1.60;;;3.10;68.40;;;;;;5097780;28;20036;-60
2021/01/24 12:51:23;;;;;;;2.58;1.30;;;3.00;68.40;;;;;;5091521;28;20078;-61
2021/01/24 12:53:48;;;;;;;1.77;1.20;;;3.00;68.70;;;;;;5092240;28;20031;-63
2021/01/24 12:56:14;;;;;;;4.80;1.40;;;2.90;68.70;;;;;;5090591;28;20122;-61
2021/01/24 12:58:40;;;;;;;2.88;1.65;;;2.90;69.50;;;;;;5092741;28;20024;-63
2021/01/24 13:01:05;;;;;;;1.80;1.20;;;2.90;70.20;;;;;;5106616;28;20461;-60